sensor_id;sensor_type;location;lat;lon;timestamp;P1;durP1;ratioP1;P2;durP2;ratioP2
66020;SDS011;52789;59.980;30.346;2022-10-22T00:01:12;25.43;;;16.70;;
66020;SDS011;52789;59.980;30.346;2022-10-22T00:03:37;34.83;;;18.40;;
66020;SDS011;52789;59.980;30.346;2022-10-22T00:06:04;27.13;;;18.97;;
66020;SDS011;52789;59.980;30.346;2022-10-22T00:08:30;26.27;;;18.17;;
66020;SDS011;52789;59.980;30.346;2022-10-22T00:10:57;25.73;;;18.20;;
66020;SDS011;52789;59.980;30.346;2022-10-22T00:13:22;31.17;;;18.43;;
66020;SDS011;52789;59.980;30.346;2022-10-22T00:15:48;27.43;;;18.27;;
66020;SDS011;52789;59.980;30.346;2022-10-22T00:18:13;27.93;;;17.57;;
66020;SDS011;52789;59.980;30.346;2022-10-22T00:20:39;27.27;;;18.93;;
66020;SDS011;52789;59.980;30.346;2022-10-22T00:23:04;30.70;;;19.07;;
66020;SDS011;52789;59.980;30.346;2022-10-22T00:25:30;33.30;;;21.37;;
66020;SDS011;52789;59.980;30.346;2022-10-22T00:27:58;23.77;;;18.30;;
66020;SDS011;52789;59.980;30.346;2022-10-22T00:30:23;29.10;;;19.47;;
66020;SDS011;52789;59.980;30.346;2022-10-22T00:32:49;30.33;;;21.73;;
66020;SDS011;52789;59.980;30.346;2022-10-22T00:35:14;26.40;;;19.10;;
66020;SDS011;52789;59.980;30.346;2022-10-22T00:37:40;27.10;;;19.47;;
66020;SDS011;52789;59.980;30.346;2022-10-22T00:40:05;32.27;;;19.67;;
66020;SDS011;52789;59.980;30.346;2022-10-22T00:42:31;29.30;;;20.87;;
66020;SDS011;52789;59.980;30.346;2022-10-22T00:47:26;29.23;;;20.58;;
66020;SDS011;52789;59.980;30.346;2022-10-22T00:49:55;29.67;;;21.00;;
66020;SDS011;52789;59.980;30.346;2022-10-22T00:52:22;33.57;;;20.73;;
66020;SDS011;52789;59.980;30.346;2022-10-22T00:54:49;32.27;;;20.70;;
66020;SDS011;52789;59.980;30.346;2022-10-22T00:57:15;30.77;;;20.77;;
66020;SDS011;52789;59.980;30.346;2022-10-22T00:59:43;31.07;;;19.17;;
66020;SDS011;52789;59.980;30.346;2022-10-22T01:02:09;27.57;;;19.93;;
66020;SDS011;52789;59.980;30.346;2022-10-22T01:04:34;27.30;;;19.37;;
66020;SDS011;52789;59.980;30.346;2022-10-22T01:07:03;31.85;;;20.95;;
66020;SDS011;52789;59.980;30.346;2022-10-22T01:09:40;31.20;;;21.17;;
66020;SDS011;52789;59.980;30.346;2022-10-22T01:15:08;30.13;;;20.23;;
66020;SDS011;52789;59.980;30.346;2022-10-22T01:17:58;34.20;;;20.60;;
66020;SDS011;52789;59.980;30.346;2022-10-22T01:26:28;29.33;;;18.60;;
66020;SDS011;52789;59.980;30.346;2022-10-22T01:31:53;30.33;;;20.20;;
66020;SDS011;52789;59.980;30.346;2022-10-22T01:34:25;29.43;;;19.07;;
66020;SDS011;52789;59.980;30.346;2022-10-22T01:36:53;28.33;;;19.58;;
66020;SDS011;52789;59.980;30.346;2022-10-22T01:39:21;30.73;;;19.10;;
66020;SDS011;52789;59.980;30.346;2022-10-22T01:41:48;28.50;;;18.20;;
66020;SDS011;52789;59.980;30.346;2022-10-22T01:44:32;30.07;;;18.63;;
66020;SDS011;52789;59.980;30.346;2022-10-22T02:00:37;28.80;;;17.00;;
66020;SDS011;52789;59.980;30.346;2022-10-22T02:03:19;27.33;;;17.87;;
66020;SDS011;52789;59.980;30.346;2022-10-22T02:05:50;27.67;;;17.00;;
66020;SDS011;52789;59.980;30.346;2022-10-22T02:08:26;27.87;;;16.90;;
66020;SDS011;52789;59.980;30.346;2022-10-22T02:10:55;28.00;;;16.20;;
66020;SDS011;52789;59.980;30.346;2022-10-22T02:13:26;25.07;;;16.77;;
66020;SDS011;52789;59.980;30.346;2022-10-22T02:15:56;29.97;;;18.20;;
66020;SDS011;52789;59.980;30.346;2022-10-22T02:18:26;29.57;;;17.73;;
66020;SDS011;52789;59.980;30.346;2022-10-22T02:20:54;25.43;;;16.43;;
66020;SDS011;52789;59.980;30.346;2022-10-22T02:23:21;25.57;;;17.30;;
66020;SDS011;52789;59.980;30.346;2022-10-22T02:25:48;28.07;;;18.17;;
66020;SDS011;52789;59.980;30.346;2022-10-22T02:28:31;23.33;;;15.53;;
66020;SDS011;52789;59.980;30.346;2022-10-22T02:31:02;32.40;;;17.43;;
66020;SDS011;52789;59.980;30.346;2022-10-22T02:33:36;33.73;;;18.33;;
66020;SDS011;52789;59.980;30.346;2022-10-22T02:36:06;29.10;;;16.90;;
66020;SDS011;52789;59.980;30.346;2022-10-22T02:38:32;29.63;;;17.37;;
66020;SDS011;52789;59.980;30.346;2022-10-22T02:40:58;28.93;;;16.63;;
66020;SDS011;52789;59.980;30.346;2022-10-22T02:43:24;26.47;;;16.83;;
66020;SDS011;52789;59.980;30.346;2022-10-22T02:45:50;29.40;;;16.57;;
66020;SDS011;52789;59.980;30.346;2022-10-22T02:48:15;29.37;;;17.53;;
66020;SDS011;52789;59.980;30.346;2022-10-22T02:50:41;28.00;;;16.93;;
66020;SDS011;52789;59.980;30.346;2022-10-22T02:53:06;27.23;;;16.23;;
66020;SDS011;52789;59.980;30.346;2022-10-22T02:55:32;27.00;;;15.93;;
66020;SDS011;52789;59.980;30.346;2022-10-22T02:57:57;25.90;;;16.23;;
66020;SDS011;52789;59.980;30.346;2022-10-22T03:00:23;25.03;;;17.50;;
66020;SDS011;52789;59.980;30.346;2022-10-22T03:02:48;27.30;;;16.37;;
66020;SDS011;52789;59.980;30.346;2022-10-22T03:05:14;26.20;;;17.53;;
66020;SDS011;52789;59.980;30.346;2022-10-22T03:07:39;27.90;;;16.47;;
66020;SDS011;52789;59.980;30.346;2022-10-22T03:10:05;29.47;;;17.60;;
66020;SDS011;52789;59.980;30.346;2022-10-22T03:12:31;26.93;;;17.33;;
66020;SDS011;52789;59.980;30.346;2022-10-22T03:14:57;33.97;;;19.10;;
66020;SDS011;52789;59.980;30.346;2022-10-22T03:17:22;25.90;;;17.37;;
66020;SDS011;52789;59.980;30.346;2022-10-22T03:19:48;25.77;;;16.27;;
66020;SDS011;52789;59.980;30.346;2022-10-22T03:22:16;27.10;;;17.30;;
66020;SDS011;52789;59.980;30.346;2022-10-22T03:24:52;25.43;;;16.43;;
66020;SDS011;52789;59.980;30.346;2022-10-22T03:27:20;24.95;;;15.38;;
66020;SDS011;52789;59.980;30.346;2022-10-22T03:29:46;25.50;;;17.07;;
66020;SDS011;52789;59.980;30.346;2022-10-22T03:32:14;24.47;;;16.50;;
66020;SDS011;52789;59.980;30.346;2022-10-22T03:34:39;33.13;;;17.83;;
66020;SDS011;52789;59.980;30.346;2022-10-22T03:37:05;26.50;;;16.73;;
66020;SDS011;52789;59.980;30.346;2022-10-22T03:39:31;28.93;;;17.30;;
66020;SDS011;52789;59.980;30.346;2022-10-22T03:41:58;26.50;;;17.47;;
66020;SDS011;52789;59.980;30.346;2022-10-22T03:44:25;23.23;;;16.73;;
66020;SDS011;52789;59.980;30.346;2022-10-22T03:46:51;27.60;;;17.30;;
66020;SDS011;52789;59.980;30.346;2022-10-22T03:49:17;23.33;;;16.33;;
66020;SDS011;52789;59.980;30.346;2022-10-22T03:51:43;29.53;;;18.13;;
66020;SDS011;52789;59.980;30.346;2022-10-22T03:54:08;25.20;;;16.93;;
66020;SDS011;52789;59.980;30.346;2022-10-22T03:56:34;24.93;;;17.13;;
66020;SDS011;52789;59.980;30.346;2022-10-22T03:58:59;28.60;;;17.77;;
66020;SDS011;52789;59.980;30.346;2022-10-22T04:01:26;24.00;;;15.63;;
66020;SDS011;52789;59.980;30.346;2022-10-22T04:03:53;22.10;;;15.87;;
66020;SDS011;52789;59.980;30.346;2022-10-22T04:06:20;26.43;;;16.23;;
66020;SDS011;52789;59.980;30.346;2022-10-22T04:08:46;27.73;;;16.20;;
66020;SDS011;52789;59.980;30.346;2022-10-22T04:11:13;25.83;;;16.77;;
66020;SDS011;52789;59.980;30.346;2022-10-22T04:13:40;22.37;;;15.37;;
66020;SDS011;52789;59.980;30.346;2022-10-22T04:16:16;22.40;;;15.97;;
66020;SDS011;52789;59.980;30.346;2022-10-22T04:18:44;24.10;;;16.15;;
66020;SDS011;52789;59.980;30.346;2022-10-22T04:21:12;21.87;;;14.87;;
66020;SDS011;52789;59.980;30.346;2022-10-22T04:23:43;21.40;;;14.70;;
66020;SDS011;52789;59.980;30.346;2022-10-22T04:26:13;19.93;;;13.73;;
66020;SDS011;52789;59.980;30.346;2022-10-22T04:28:39;21.63;;;14.17;;
66020;SDS011;52789;59.980;30.346;2022-10-22T04:31:13;21.93;;;14.83;;
66020;SDS011;52789;59.980;30.346;2022-10-22T04:33:46;20.00;;;13.87;;
66020;SDS011;52789;59.980;30.346;2022-10-22T04:36:12;24.63;;;15.87;;
66020;SDS011;52789;59.980;30.346;2022-10-22T04:38:41;23.70;;;14.90;;
66020;SDS011;52789;59.980;30.346;2022-10-22T04:41:12;24.07;;;16.27;;
66020;SDS011;52789;59.980;30.346;2022-10-22T04:43:39;24.10;;;15.80;;
66020;SDS011;52789;59.980;30.346;2022-10-22T04:46:05;26.07;;;15.23;;
66020;SDS011;52789;59.980;30.346;2022-10-22T04:48:34;23.43;;;14.60;;
66020;SDS011;52789;59.980;30.346;2022-10-22T04:51:00;26.43;;;18.40;;
66020;SDS011;52789;59.980;30.346;2022-10-22T04:53:26;27.20;;;17.63;;
66020;SDS011;52789;59.980;30.346;2022-10-22T04:55:52;24.07;;;16.77;;
66020;SDS011;52789;59.980;30.346;2022-10-22T04:58:18;24.37;;;16.50;;
66020;SDS011;52789;59.980;30.346;2022-10-22T05:00:44;22.77;;;15.70;;
66020;SDS011;52789;59.980;30.346;2022-10-22T05:03:09;23.53;;;16.27;;
66020;SDS011;52789;59.980;30.346;2022-10-22T05:05:35;26.87;;;16.40;;
66020;SDS011;52789;59.980;30.346;2022-10-22T05:08:00;28.70;;;16.77;;
66020;SDS011;52789;59.980;30.346;2022-10-22T05:10:31;26.47;;;16.90;;
66020;SDS011;52789;59.980;30.346;2022-10-22T05:12:57;23.17;;;16.07;;
66020;SDS011;52789;59.980;30.346;2022-10-22T05:15:22;24.77;;;16.70;;
66020;SDS011;52789;59.980;30.346;2022-10-22T05:17:47;26.20;;;15.50;;
66020;SDS011;52789;59.980;30.346;2022-10-22T05:20:13;26.57;;;16.60;;
66020;SDS011;52789;59.980;30.346;2022-10-22T05:22:38;26.00;;;14.47;;
66020;SDS011;52789;59.980;30.346;2022-10-22T05:25:04;26.53;;;14.63;;
66020;SDS011;52789;59.980;30.346;2022-10-22T05:27:30;25.37;;;14.33;;
66020;SDS011;52789;59.980;30.346;2022-10-22T05:29:55;24.07;;;15.50;;
66020;SDS011;52789;59.980;30.346;2022-10-22T05:32:21;25.83;;;15.00;;
66020;SDS011;52789;59.980;30.346;2022-10-22T05:34:47;20.13;;;13.43;;
66020;SDS011;52789;59.980;30.346;2022-10-22T05:37:12;26.97;;;15.37;;
66020;SDS011;52789;59.980;30.346;2022-10-22T05:39:38;26.90;;;14.50;;
66020;SDS011;52789;59.980;30.346;2022-10-22T05:42:04;23.50;;;16.70;;
66020;SDS011;52789;59.980;30.346;2022-10-22T05:44:30;22.33;;;14.13;;
66020;SDS011;52789;59.980;30.346;2022-10-22T05:46:56;24.83;;;14.03;;
66020;SDS011;52789;59.980;30.346;2022-10-22T05:49:21;22.30;;;13.87;;
66020;SDS011;52789;59.980;30.346;2022-10-22T05:51:46;22.27;;;13.70;;
66020;SDS011;52789;59.980;30.346;2022-10-22T05:54:15;22.70;;;13.47;;
66020;SDS011;52789;59.980;30.346;2022-10-22T05:56:42;19.43;;;12.83;;
66020;SDS011;52789;59.980;30.346;2022-10-22T05:59:08;22.13;;;13.97;;
66020;SDS011;52789;59.980;30.346;2022-10-22T06:01:35;17.33;;;11.93;;
66020;SDS011;52789;59.980;30.346;2022-10-22T06:04:02;25.70;;;13.40;;
66020;SDS011;52789;59.980;30.346;2022-10-22T06:08:55;20.10;;;12.00;;
66020;SDS011;52789;59.980;30.346;2022-10-22T06:11:27;21.53;;;12.13;;
66020;SDS011;52789;59.980;30.346;2022-10-22T06:13:52;22.03;;;13.80;;
66020;SDS011;52789;59.980;30.346;2022-10-22T06:16:18;20.47;;;13.10;;
66020;SDS011;52789;59.980;30.346;2022-10-22T06:18:43;25.50;;;13.40;;
66020;SDS011;52789;59.980;30.346;2022-10-22T06:21:10;19.53;;;12.47;;
66020;SDS011;52789;59.980;30.346;2022-10-22T06:23:38;21.47;;;12.60;;
66020;SDS011;52789;59.980;30.346;2022-10-22T06:26:05;22.20;;;13.77;;
66020;SDS011;52789;59.980;30.346;2022-10-22T06:28:31;17.87;;;12.60;;
66020;SDS011;52789;59.980;30.346;2022-10-22T06:30:58;21.97;;;11.93;;
66020;SDS011;52789;59.980;30.346;2022-10-22T06:33:24;24.93;;;13.50;;
66020;SDS011;52789;59.980;30.346;2022-10-22T06:35:50;22.50;;;12.90;;
66020;SDS011;52789;59.980;30.346;2022-10-22T06:38:16;20.73;;;12.07;;
66020;SDS011;52789;59.980;30.346;2022-10-22T06:40:42;18.53;;;12.27;;
66020;SDS011;52789;59.980;30.346;2022-10-22T06:43:12;19.33;;;12.63;;
66020;SDS011;52789;59.980;30.346;2022-10-22T06:45:39;18.73;;;12.03;;
66020;SDS011;52789;59.980;30.346;2022-10-22T06:48:05;20.17;;;10.67;;
66020;SDS011;52789;59.980;30.346;2022-10-22T06:50:32;17.10;;;9.87;;
66020;SDS011;52789;59.980;30.346;2022-10-22T06:52:59;14.73;;;10.30;;
66020;SDS011;52789;59.980;30.346;2022-10-22T06:55:30;17.60;;;10.63;;
66020;SDS011;52789;59.980;30.346;2022-10-22T06:58:00;13.47;;;9.10;;
66020;SDS011;52789;59.980;30.346;2022-10-22T07:00:26;15.30;;;9.20;;
66020;SDS011;52789;59.980;30.346;2022-10-22T07:02:51;16.07;;;10.17;;
66020;SDS011;52789;59.980;30.346;2022-10-22T07:05:17;14.97;;;9.77;;
66020;SDS011;52789;59.980;30.346;2022-10-22T07:07:45;17.63;;;9.70;;
66020;SDS011;52789;59.980;30.346;2022-10-22T07:10:10;13.90;;;9.60;;
66020;SDS011;52789;59.980;30.346;2022-10-22T07:12:37;13.20;;;8.47;;
66020;SDS011;52789;59.980;30.346;2022-10-22T07:15:05;12.85;;;8.52;;
66020;SDS011;52789;59.980;30.346;2022-10-22T07:17:31;15.97;;;8.80;;
66020;SDS011;52789;59.980;30.346;2022-10-22T07:19:56;17.30;;;8.27;;
66020;SDS011;52789;59.980;30.346;2022-10-22T07:22:21;12.80;;;7.97;;
66020;SDS011;52789;59.980;30.346;2022-10-22T07:24:47;13.50;;;9.00;;
66020;SDS011;52789;59.980;30.346;2022-10-22T07:27:12;13.60;;;9.53;;
66020;SDS011;52789;59.980;30.346;2022-10-22T07:29:38;14.90;;;8.53;;
66020;SDS011;52789;59.980;30.346;2022-10-22T07:32:03;18.67;;;11.00;;
66020;SDS011;52789;59.980;30.346;2022-10-22T07:34:29;15.23;;;10.67;;
66020;SDS011;52789;59.980;30.346;2022-10-22T07:37:01;15.50;;;10.40;;
66020;SDS011;52789;59.980;30.346;2022-10-22T07:39:26;11.77;;;8.37;;
66020;SDS011;52789;59.980;30.346;2022-10-22T07:41:52;15.23;;;7.67;;
66020;SDS011;52789;59.980;30.346;2022-10-22T07:44:18;11.00;;;7.53;;
66020;SDS011;52789;59.980;30.346;2022-10-22T07:46:44;11.90;;;8.07;;
66020;SDS011;52789;59.980;30.346;2022-10-22T07:49:09;13.80;;;7.30;;
66020;SDS011;52789;59.980;30.346;2022-10-22T07:51:35;12.83;;;8.17;;
66020;SDS011;52789;59.980;30.346;2022-10-22T07:54:00;12.77;;;8.37;;
66020;SDS011;52789;59.980;30.346;2022-10-22T07:56:26;13.17;;;7.77;;
66020;SDS011;52789;59.980;30.346;2022-10-22T07:58:52;20.47;;;8.13;;
66020;SDS011;52789;59.980;30.346;2022-10-22T08:01:17;15.60;;;8.57;;
66020;SDS011;52789;59.980;30.346;2022-10-22T08:03:43;13.03;;;8.90;;
66020;SDS011;52789;59.980;30.346;2022-10-22T08:06:08;17.30;;;11.13;;
66020;SDS011;52789;59.980;30.346;2022-10-22T08:08:37;13.18;;;8.30;;
66020;SDS011;52789;59.980;30.346;2022-10-22T08:11:04;12.17;;;9.10;;
66020;SDS011;52789;59.980;30.346;2022-10-22T08:13:30;11.80;;;7.33;;
66020;SDS011;52789;59.980;30.346;2022-10-22T08:16:00;10.33;;;7.23;;
66020;SDS011;52789;59.980;30.346;2022-10-22T08:18:26;13.57;;;7.80;;
66020;SDS011;52789;59.980;30.346;2022-10-22T08:20:52;11.87;;;8.10;;
66020;SDS011;52789;59.980;30.346;2022-10-22T08:23:18;16.33;;;10.47;;
66020;SDS011;52789;59.980;30.346;2022-10-22T08:25:44;10.50;;;7.00;;
66020;SDS011;52789;59.980;30.346;2022-10-22T08:28:10;15.83;;;7.47;;
66020;SDS011;52789;59.980;30.346;2022-10-22T08:30:35;9.77;;;7.07;;
66020;SDS011;52789;59.980;30.346;2022-10-22T08:33:03;10.60;;;7.27;;
66020;SDS011;52789;59.980;30.346;2022-10-22T08:35:31;11.53;;;7.87;;
66020;SDS011;52789;59.980;30.346;2022-10-22T08:37:57;13.20;;;7.73;;
66020;SDS011;52789;59.980;30.346;2022-10-22T08:40:25;15.47;;;7.40;;
66020;SDS011;52789;59.980;30.346;2022-10-22T08:43:08;13.57;;;8.47;;
66020;SDS011;52789;59.980;30.346;2022-10-22T08:45:59;16.87;;;9.60;;
66020;SDS011;52789;59.980;30.346;2022-10-22T08:48:48;13.90;;;8.20;;
66020;SDS011;52789;59.980;30.346;2022-10-22T08:51:18;15.00;;;9.97;;
66020;SDS011;52789;59.980;30.346;2022-10-22T08:54:04;14.23;;;9.60;;
66020;SDS011;52789;59.980;30.346;2022-10-22T08:56:46;11.53;;;7.80;;
66020;SDS011;52789;59.980;30.346;2022-10-22T08:59:25;14.47;;;8.27;;
66020;SDS011;52789;59.980;30.346;2022-10-22T09:01:59;11.93;;;7.20;;
66020;SDS011;52789;59.980;30.346;2022-10-22T09:04:30;9.50;;;6.73;;
66020;SDS011;52789;59.980;30.346;2022-10-22T09:07:07;8.73;;;6.57;;
66020;SDS011;52789;59.980;30.346;2022-10-22T09:09:41;10.20;;;6.73;;
66020;SDS011;52789;59.980;30.346;2022-10-22T09:12:12;6.10;;;5.50;;
66020;SDS011;52789;59.980;30.346;2022-10-22T09:14:41;6.60;;;5.47;;
66020;SDS011;52789;59.980;30.346;2022-10-22T09:19:45;6.75;;;5.22;;
66020;SDS011;52789;59.980;30.346;2022-10-22T09:27:45;10.20;;;6.60;;
66020;SDS011;52789;59.980;30.346;2022-10-22T09:30:19;9.97;;;5.53;;
66020;SDS011;52789;59.980;30.346;2022-10-22T09:32:48;5.43;;;4.87;;
66020;SDS011;52789;59.980;30.346;2022-10-22T09:35:26;6.17;;;5.03;;
66020;SDS011;52789;59.980;30.346;2022-10-22T09:37:53;8.00;;;6.10;;
66020;SDS011;52789;59.980;30.346;2022-10-22T09:40:20;8.17;;;5.67;;
66020;SDS011;52789;59.980;30.346;2022-10-22T09:42:47;12.13;;;5.37;;
66020;SDS011;52789;59.980;30.346;2022-10-22T09:45:18;10.70;;;4.97;;
66020;SDS011;52789;59.980;30.346;2022-10-22T09:48:08;7.13;;;4.87;;
66020;SDS011;52789;59.980;30.346;2022-10-22T09:53:12;5.47;;;4.27;;
66020;SDS011;52789;59.980;30.346;2022-10-22T09:58:59;5.27;;;4.27;;
66020;SDS011;52789;59.980;30.346;2022-10-22T10:01:31;8.60;;;5.20;;
66020;SDS011;52789;59.980;30.346;2022-10-22T10:04:03;8.03;;;5.90;;
66020;SDS011;52789;59.980;30.346;2022-10-22T10:06:31;5.75;;;4.68;;
66020;SDS011;52789;59.980;30.346;2022-10-22T10:08:59;6.03;;;5.13;;
66020;SDS011;52789;59.980;30.346;2022-10-22T10:11:36;9.83;;;5.40;;
66020;SDS011;52789;59.980;30.346;2022-10-22T10:14:19;6.20;;;5.60;;
66020;SDS011;52789;59.980;30.346;2022-10-22T10:19:46;7.70;;;5.87;;
66020;SDS011;52789;59.980;30.346;2022-10-22T10:28:34;6.93;;;4.73;;
66020;SDS011;52789;59.980;30.346;2022-10-22T10:31:20;11.40;;;4.60;;
66020;SDS011;52789;59.980;30.346;2022-10-22T10:39:57;8.83;;;4.90;;
66020;SDS011;52789;59.980;30.346;2022-10-22T10:42:27;6.70;;;4.57;;
66020;SDS011;52789;59.980;30.346;2022-10-22T10:55:52;13.17;;;7.73;;
66020;SDS011;52789;59.980;30.346;2022-10-22T11:03:54;8.83;;;5.33;;
66020;SDS011;52789;59.980;30.346;2022-10-22T11:06:42;8.83;;;5.17;;
66020;SDS011;52789;59.980;30.346;2022-10-22T11:22:17;9.50;;;4.80;;
66020;SDS011;52789;59.980;30.346;2022-10-22T11:24:55;7.00;;;4.10;;
66020;SDS011;52789;59.980;30.346;2022-10-22T11:31:06;6.40;;;4.27;;
66020;SDS011;52789;59.980;30.346;2022-10-22T11:33:43;6.67;;;4.23;;
66020;SDS011;52789;59.980;30.346;2022-10-22T11:36:19;13.57;;;9.07;;
66020;SDS011;52789;59.980;30.346;2022-10-22T11:38:48;11.57;;;6.40;;
66020;SDS011;52789;59.980;30.346;2022-10-22T11:41:17;6.20;;;4.77;;
66020;SDS011;52789;59.980;30.346;2022-10-22T11:43:52;4.67;;;4.20;;
66020;SDS011;52789;59.980;30.346;2022-10-22T11:46:39;8.00;;;4.37;;
66020;SDS011;52789;59.980;30.346;2022-10-22T11:51:35;10.63;;;4.33;;
66020;SDS011;52789;59.980;30.346;2022-10-22T11:54:23;17.20;;;6.75;;
66020;SDS011;52789;59.980;30.346;2022-10-22T11:57:20;12.73;;;7.00;;
66020;SDS011;52789;59.980;30.346;2022-10-22T11:59:58;22.63;;;6.57;;
66020;SDS011;52789;59.980;30.346;2022-10-22T12:07:56;8.13;;;5.27;;
66020;SDS011;52789;59.980;30.346;2022-10-22T12:16:34;9.57;;;7.50;;
66020;SDS011;52789;59.980;30.346;2022-10-22T12:21:39;7.47;;;4.77;;
66020;SDS011;52789;59.980;30.346;2022-10-22T12:24:14;6.03;;;4.57;;
66020;SDS011;52789;59.980;30.346;2022-10-22T12:26:46;5.77;;;4.57;;
66020;SDS011;52789;59.980;30.346;2022-10-22T12:29:32;7.27;;;4.13;;
66020;SDS011;52789;59.980;30.346;2022-10-22T12:32:01;4.10;;;3.20;;
66020;SDS011;52789;59.980;30.346;2022-10-22T12:34:49;3.57;;;3.27;;
66020;SDS011;52789;59.980;30.346;2022-10-22T12:37:16;4.68;;;3.60;;
66020;SDS011;52789;59.980;30.346;2022-10-22T12:39:46;5.60;;;4.30;;
66020;SDS011;52789;59.980;30.346;2022-10-22T12:42:12;7.07;;;5.30;;
66020;SDS011;52789;59.980;30.346;2022-10-22T12:47:32;5.00;;;4.07;;
66020;SDS011;52789;59.980;30.346;2022-10-22T12:50:12;4.80;;;3.75;;
66020;SDS011;52789;59.980;30.346;2022-10-22T12:52:49;5.80;;;4.97;;
66020;SDS011;52789;59.980;30.346;2022-10-22T12:55:20;7.00;;;4.03;;
66020;SDS011;52789;59.980;30.346;2022-10-22T12:57:50;7.20;;;3.93;;
66020;SDS011;52789;59.980;30.346;2022-10-22T13:00:26;4.60;;;3.90;;
66020;SDS011;52789;59.980;30.346;2022-10-22T13:02:56;6.30;;;4.23;;
66020;SDS011;52789;59.980;30.346;2022-10-22T13:05:30;6.73;;;4.73;;
66020;SDS011;52789;59.980;30.346;2022-10-22T13:08:06;9.17;;;4.30;;
66020;SDS011;52789;59.980;30.346;2022-10-22T13:10:47;7.15;;;5.10;;
66020;SDS011;52789;59.980;30.346;2022-10-22T13:16:19;7.70;;;5.83;;
66020;SDS011;52789;59.980;30.346;2022-10-22T13:18:48;5.67;;;4.60;;
66020;SDS011;52789;59.980;30.346;2022-10-22T13:21:22;8.83;;;5.57;;
66020;SDS011;52789;59.980;30.346;2022-10-22T13:23:59;7.63;;;5.13;;
66020;SDS011;52789;59.980;30.346;2022-10-22T13:26:34;6.27;;;5.00;;
66020;SDS011;52789;59.980;30.346;2022-10-22T13:29:08;7.07;;;5.50;;
66020;SDS011;52789;59.980;30.346;2022-10-22T13:31:36;6.87;;;4.80;;
66020;SDS011;52789;59.980;30.346;2022-10-22T13:34:11;8.20;;;4.47;;
66020;SDS011;52789;59.980;30.346;2022-10-22T13:36:43;10.50;;;5.53;;
66020;SDS011;52789;59.980;30.346;2022-10-22T13:39:14;8.80;;;5.27;;
66020;SDS011;52789;59.980;30.346;2022-10-22T13:41:44;9.67;;;4.57;;
66020;SDS011;52789;59.980;30.346;2022-10-22T13:44:10;7.87;;;5.47;;
66020;SDS011;52789;59.980;30.346;2022-10-22T13:46:35;7.90;;;5.10;;
66020;SDS011;52789;59.980;30.346;2022-10-22T13:49:06;6.77;;;4.80;;
66020;SDS011;52789;59.980;30.346;2022-10-22T13:51:44;18.27;;;4.93;;
66020;SDS011;52789;59.980;30.346;2022-10-22T13:54:18;6.87;;;5.23;;
66020;SDS011;52789;59.980;30.346;2022-10-22T13:56:46;6.70;;;5.53;;
66020;SDS011;52789;59.980;30.346;2022-10-22T13:59:12;21.63;;;5.43;;
66020;SDS011;52789;59.980;30.346;2022-10-22T14:01:38;11.87;;;5.73;;
66020;SDS011;52789;59.980;30.346;2022-10-22T14:04:04;8.93;;;5.43;;
66020;SDS011;52789;59.980;30.346;2022-10-22T14:06:32;16.80;;;10.80;;
66020;SDS011;52789;59.980;30.346;2022-10-22T14:09:03;13.93;;;6.33;;
66020;SDS011;52789;59.980;30.346;2022-10-22T14:11:37;7.17;;;6.23;;
66020;SDS011;52789;59.980;30.346;2022-10-22T14:14:02;6.37;;;4.87;;
66020;SDS011;52789;59.980;30.346;2022-10-22T14:16:32;7.03;;;5.30;;
66020;SDS011;52789;59.980;30.346;2022-10-22T14:18:59;8.53;;;6.03;;
66020;SDS011;52789;59.980;30.346;2022-10-22T14:21:27;8.57;;;5.43;;
66020;SDS011;52789;59.980;30.346;2022-10-22T14:23:57;7.53;;;4.73;;
66020;SDS011;52789;59.980;30.346;2022-10-22T14:26:24;6.87;;;5.00;;
66020;SDS011;52789;59.980;30.346;2022-10-22T14:28:55;8.30;;;5.00;;
66020;SDS011;52789;59.980;30.346;2022-10-22T14:31:21;11.20;;;5.23;;
66020;SDS011;52789;59.980;30.346;2022-10-22T14:33:47;10.67;;;6.00;;
66020;SDS011;52789;59.980;30.346;2022-10-22T14:36:15;10.27;;;5.80;;
66020;SDS011;52789;59.980;30.346;2022-10-22T14:38:42;14.13;;;6.87;;
66020;SDS011;52789;59.980;30.346;2022-10-22T14:41:21;9.77;;;6.37;;
66020;SDS011;52789;59.980;30.346;2022-10-22T14:43:49;7.67;;;5.50;;
66020;SDS011;52789;59.980;30.346;2022-10-22T14:46:16;10.13;;;6.70;;
66020;SDS011;52789;59.980;30.346;2022-10-22T14:48:42;10.83;;;7.07;;
66020;SDS011;52789;59.980;30.346;2022-10-22T14:51:16;8.57;;;6.07;;
66020;SDS011;52789;59.980;30.346;2022-10-22T14:53:43;12.27;;;7.23;;
66020;SDS011;52789;59.980;30.346;2022-10-22T14:56:12;10.37;;;6.57;;
66020;SDS011;52789;59.980;30.346;2022-10-22T14:58:39;9.23;;;6.47;;
66020;SDS011;52789;59.980;30.346;2022-10-22T15:01:05;9.40;;;6.57;;
66020;SDS011;52789;59.980;30.346;2022-10-22T15:03:32;12.53;;;6.97;;
66020;SDS011;52789;59.980;30.346;2022-10-22T15:05:58;9.23;;;6.77;;
66020;SDS011;52789;59.980;30.346;2022-10-22T15:08:29;9.80;;;6.87;;
66020;SDS011;52789;59.980;30.346;2022-10-22T15:10:58;9.27;;;6.27;;
66020;SDS011;52789;59.980;30.346;2022-10-22T15:13:24;6.80;;;5.50;;
66020;SDS011;52789;59.980;30.346;2022-10-22T15:15:51;8.63;;;6.07;;
66020;SDS011;52789;59.980;30.346;2022-10-22T15:18:17;8.97;;;6.00;;
66020;SDS011;52789;59.980;30.346;2022-10-22T15:20:42;8.17;;;5.20;;
66020;SDS011;52789;59.980;30.346;2022-10-22T15:23:08;9.63;;;5.50;;
66020;SDS011;52789;59.980;30.346;2022-10-22T15:25:33;8.70;;;6.10;;
66020;SDS011;52789;59.980;30.346;2022-10-22T15:28:03;13.70;;;6.47;;
66020;SDS011;52789;59.980;30.346;2022-10-22T15:30:29;14.60;;;7.90;;
66020;SDS011;52789;59.980;30.346;2022-10-22T15:32:54;11.70;;;7.33;;
66020;SDS011;52789;59.980;30.346;2022-10-22T15:35:20;11.17;;;6.87;;
66020;SDS011;52789;59.980;30.346;2022-10-22T15:37:45;15.13;;;6.77;;
66020;SDS011;52789;59.980;30.346;2022-10-22T15:40:15;7.90;;;6.50;;
66020;SDS011;52789;59.980;30.346;2022-10-22T15:42:40;8.47;;;6.50;;
66020;SDS011;52789;59.980;30.346;2022-10-22T15:45:06;8.47;;;6.53;;
66020;SDS011;52789;59.980;30.346;2022-10-22T15:47:33;13.07;;;8.77;;
66020;SDS011;52789;59.980;30.346;2022-10-22T15:49:58;11.13;;;7.00;;
66020;SDS011;52789;59.980;30.346;2022-10-22T15:52:24;12.40;;;6.23;;
66020;SDS011;52789;59.980;30.346;2022-10-22T15:54:49;8.70;;;6.13;;
66020;SDS011;52789;59.980;30.346;2022-10-22T15:57:15;8.10;;;5.93;;
66020;SDS011;52789;59.980;30.346;2022-10-22T15:59:40;7.83;;;5.80;;
66020;SDS011;52789;59.980;30.346;2022-10-22T16:02:06;9.77;;;7.10;;
66020;SDS011;52789;59.980;30.346;2022-10-22T16:04:31;8.77;;;6.90;;
66020;SDS011;52789;59.980;30.346;2022-10-22T16:06:57;7.47;;;6.57;;
66020;SDS011;52789;59.980;30.346;2022-10-22T16:09:26;11.97;;;7.00;;
66020;SDS011;52789;59.980;30.346;2022-10-22T16:11:52;9.70;;;6.70;;
66020;SDS011;52789;59.980;30.346;2022-10-22T16:14:19;10.43;;;6.60;;
66020;SDS011;52789;59.980;30.346;2022-10-22T16:16:46;10.60;;;6.83;;
66020;SDS011;52789;59.980;30.346;2022-10-22T16:19:14;10.18;;;6.68;;
66020;SDS011;52789;59.980;30.346;2022-10-22T16:21:41;9.97;;;7.00;;
66020;SDS011;52789;59.980;30.346;2022-10-22T16:24:11;9.43;;;6.87;;